createdAt,value
2023-05-25T00:02:04.693Z,99563.16
2023-05-25T00:04:34.629Z,99566.47
2023-05-25T00:07:02.822Z,99568.44
2023-05-25T00:09:30.906Z,99558.19
2023-05-25T00:11:59.896Z,99572.91
2023-05-25T00:14:27.968Z,99576.34
2023-05-25T00:16:56.015Z,99574.22
2023-05-25T00:19:26.107Z,99580.31
2023-05-25T00:21:54.763Z,99581.78
2023-05-25T00:24:22.745Z,99576.19
2023-05-25T00:26:50.757Z,99561.84
2023-05-25T00:29:18.695Z,99568.28
2023-05-25T00:31:46.708Z,99561.34
2023-05-25T00:34:14.610Z,99567.47
2023-05-25T00:36:44.244Z,99561.34
2023-05-25T00:39:12.173Z,99559.38
2023-05-25T00:41:41.794Z,99564.31
2023-05-25T00:44:10.046Z,99553.41
2023-05-25T00:46:38.967Z,99542.50
2023-05-25T00:49:07.099Z,99562.84
2023-05-25T00:51:36.552Z,99569.25
2023-05-25T00:54:06.206Z,99561.44
2023-05-25T00:56:39.423Z,99561.94
2023-05-25T00:59:09.263Z,99564.59
2023-05-25T01:01:40.414Z,99562.63
2023-05-25T01:04:10.685Z,99568.38
2023-05-25T01:06:40.848Z,99564.94
2023-05-25T01:09:12.464Z,99558.63
2023-05-25T01:11:43.726Z,99553.00
2023-05-25T01:14:12.315Z,99558.78
2023-05-25T01:16:41.589Z,99551.22
2023-05-25T01:19:10.884Z,99566.22
2023-05-25T01:21:46.095Z,99544.56
2023-05-25T01:24:22.469Z,99553.66
2023-05-25T01:26:57.263Z,99532.22
2023-05-25T01:29:27.319Z,99552.88
2023-05-25T01:31:56.733Z,99548.56
2023-05-25T01:34:26.115Z,99551.69
2023-05-25T01:36:55.992Z,99550.03
2023-05-25T01:39:25.206Z,99554.66
2023-05-25T01:41:53.223Z,99552.03
2023-05-25T01:44:21.977Z,99547.44
2023-05-25T01:46:59.863Z,99551.34
2023-05-25T01:49:30.665Z,99553.66
2023-05-25T01:52:08.600Z,99554.25
2023-05-25T01:54:39.638Z,99548.84
2023-05-25T01:57:10.991Z,99551.00
2023-05-25T01:59:39.777Z,99559.25
2023-05-25T02:02:08.748Z,99556.75
2023-05-25T02:04:37.040Z,99553.59
2023-05-25T02:07:06.861Z,99556.53
2023-05-25T02:09:34.854Z,99564.97
2023-05-25T02:12:02.853Z,99567.22
2023-05-25T02:14:30.980Z,99568.59
2023-05-25T02:17:02.131Z,99567.78
2023-05-25T02:19:30.376Z,99568.72
2023-05-25T02:21:58.354Z,99572.09
2023-05-25T02:24:27.803Z,99576.72
2023-05-25T02:26:55.829Z,99581.28
2023-05-25T02:29:23.811Z,99561.88
2023-05-25T02:31:51.863Z,99577.81
2023-05-25T02:34:19.896Z,99579.22
2023-05-25T02:36:47.847Z,99567.25
2023-05-25T02:39:15.812Z,99574.13
2023-05-25T02:41:45.117Z,99576.13
2023-05-25T02:44:13.075Z,99569.09
2023-05-25T02:46:41.077Z,99555.63
2023-05-25T02:49:09.064Z,99575.50
2023-05-25T02:51:37.132Z,99577.81
2023-05-25T02:54:05.276Z,99580.81
2023-05-25T02:56:33.345Z,99581.44
2023-05-25T02:59:02.619Z,99589.31
2023-05-25T03:01:31.190Z,99586.31
2023-05-25T03:03:59.574Z,99585.00
2023-05-25T03:06:27.802Z,99590.50
2023-05-25T03:08:55.716Z,99594.28
2023-05-25T03:11:23.768Z,99590.00
2023-05-25T03:13:52.873Z,99597.47
2023-05-25T03:16:23.389Z,99592.31
2023-05-25T03:18:51.463Z,99607.63
2023-05-25T03:21:19.439Z,99606.66
2023-05-25T03:23:47.397Z,99607.88
2023-05-25T03:26:15.788Z,99613.84
2023-05-25T03:28:43.873Z,99607.56
2023-05-25T03:31:12.222Z,99613.66
2023-05-25T03:33:41.495Z,99607.31
2023-05-25T03:36:09.972Z,99615.16
2023-05-25T03:38:38.151Z,99607.25
2023-05-25T03:41:06.436Z,99606.88
2023-05-25T03:43:34.411Z,99604.53
2023-05-25T03:46:02.497Z,99595.16
2023-05-25T03:48:30.808Z,99595.31
2023-05-25T03:51:00.183Z,99601.41
2023-05-25T03:53:28.229Z,99603.22
2023-05-25T03:55:56.690Z,99606.72
2023-05-25T03:58:24.701Z,99609.00
2023-05-25T04:00:52.968Z,99592.66
2023-05-25T04:03:21.826Z,99614.50
2023-05-25T04:05:50.127Z,99605.63
2023-05-25T04:08:20.738Z,99599.06
2023-05-25T04:10:49.065Z,99611.56
2023-05-25T04:13:17.248Z,99608.53
2023-05-25T04:15:45.444Z,99610.41
2023-05-25T04:18:13.668Z,99599.56
2023-05-25T04:20:41.959Z,99607.69
2023-05-25T04:23:09.973Z,99606.41
2023-05-25T04:25:39.342Z,99605.88
2023-05-25T04:28:08.573Z,99618.63
2023-05-25T04:30:36.870Z,99614.34
2023-05-25T04:33:05.050Z,99621.31
2023-05-25T04:35:33.161Z,99620.72
2023-05-25T04:38:03.114Z,99619.09
2023-05-25T04:40:33.266Z,99622.69
2023-05-25T04:43:03.543Z,99609.19
2023-05-25T04:45:33.316Z,99614.66
2023-05-25T04:48:01.670Z,99619.63
2023-05-25T04:50:30.174Z,99610.06
2023-05-25T04:52:58.499Z,99620.81
2023-05-25T04:55:26.486Z,99617.97
2023-05-25T04:57:55.239Z,99621.75
2023-05-25T05:00:24.966Z,99615.25
2023-05-25T05:02:54.094Z,99613.97
2023-05-25T05:05:22.206Z,99616.72
2023-05-25T05:07:50.195Z,99619.63
2023-05-25T05:10:18.582Z,99631.25
2023-05-25T05:12:46.654Z,99632.66
2023-05-25T05:15:14.805Z,99637.47
2023-05-25T05:17:44.133Z,99625.94
2023-05-25T05:20:12.764Z,99618.97
2023-05-25T05:22:41.244Z,99611.66
2023-05-25T05:25:09.917Z,99615.25
2023-05-25T05:27:38.008Z,99622.91
2023-05-25T05:30:07.697Z,99626.69
2023-05-25T05:32:35.753Z,99632.44
2023-05-25T05:35:05.608Z,99629.69
2023-05-25T05:37:33.535Z,99625.13
2023-05-25T05:40:01.526Z,99631.38
2023-05-25T05:42:29.568Z,99629.44
2023-05-25T05:44:57.611Z,99627.34
2023-05-25T05:47:25.707Z,99624.53
2023-05-25T05:49:53.774Z,99629.25
2023-05-25T05:52:23.615Z,99627.72
2023-05-25T05:54:51.559Z,99616.25
2023-05-25T05:57:19.593Z,99630.53
2023-05-25T05:59:47.668Z,99627.44
2023-05-25T06:02:15.603Z,99629.03
2023-05-25T06:04:43.623Z,99621.00
2023-05-25T06:07:11.735Z,99627.53
2023-05-25T06:09:41.100Z,99633.78
2023-05-25T06:12:10.157Z,99629.13
2023-05-25T06:14:38.173Z,99634.97
2023-05-25T06:17:06.788Z,99633.69
2023-05-25T06:19:34.916Z,99634.94
2023-05-25T06:22:02.920Z,99633.59
2023-05-25T06:24:31.562Z,99642.13
2023-05-25T06:27:02.324Z,99638.31
2023-05-25T06:29:30.587Z,99647.00
2023-05-25T06:31:58.594Z,99650.38
2023-05-25T06:34:26.820Z,99647.03
2023-05-25T06:36:54.839Z,99655.47
2023-05-25T06:39:22.883Z,99649.88
2023-05-25T06:41:51.362Z,99653.69
2023-05-25T06:44:20.748Z,99652.69
2023-05-25T06:46:48.913Z,99649.38
2023-05-25T06:49:16.844Z,99644.97
2023-05-25T06:51:45.143Z,99644.59
2023-05-25T06:54:15.036Z,99645.41
2023-05-25T06:56:43.068Z,99636.13
2023-05-25T06:59:11.140Z,99638.31
2023-05-25T07:01:41.200Z,99638.06
2023-05-25T07:04:09.271Z,99635.13
2023-05-25T07:06:37.296Z,99639.53
2023-05-25T07:09:05.486Z,99631.38
2023-05-25T07:11:33.496Z,99636.56
2023-05-25T07:14:01.484Z,99639.38
2023-05-25T07:16:29.595Z,99638.69
2023-05-25T07:19:00.431Z,99634.25
2023-05-25T07:21:28.690Z,99638.47
2023-05-25T07:23:56.931Z,99630.91
2023-05-25T07:26:25.791Z,99643.94
2023-05-25T07:28:53.768Z,99634.59
2023-05-25T07:31:22.514Z,99638.31
2023-05-25T07:33:50.902Z,99639.38
2023-05-25T07:36:20.571Z,99607.25
2023-05-25T07:38:48.878Z,99640.72
2023-05-25T07:41:17.159Z,99642.00
2023-05-25T07:43:45.601Z,99641.59
2023-05-25T07:46:13.670Z,99641.19
2023-05-25T07:48:41.616Z,99642.00
2023-05-25T07:51:09.790Z,99641.22
2023-05-25T07:53:39.108Z,99646.88
2023-05-25T07:56:10.458Z,99637.66
2023-05-25T07:58:38.704Z,99625.34
2023-05-25T08:01:06.895Z,99636.41
2023-05-25T08:03:47.974Z,99643.28
2023-05-25T08:06:17.978Z,99641.56
2023-05-25T08:08:47.418Z,99650.44
2023-05-25T08:11:16.442Z,99651.69
2023-05-25T08:13:44.479Z,99641.28
2023-05-25T08:16:12.422Z,99647.31
2023-05-25T08:18:41.022Z,99638.13
2023-05-25T08:21:08.995Z,99621.75
2023-05-25T08:23:42.600Z,99643.72
2023-05-25T08:26:31.325Z,99632.22
2023-05-25T08:29:01.744Z,99633.88
2023-05-25T08:31:29.670Z,99633.06
2023-05-25T08:33:57.831Z,99629.75
2023-05-25T08:36:26.062Z,99632.47
2023-05-25T08:38:54.382Z,99625.47
2023-05-25T08:41:23.718Z,99626.91
2023-05-25T08:43:51.789Z,99638.78
2023-05-25T08:46:30.353Z,99625.66
2023-05-25T08:49:02.192Z,99607.34
2023-05-25T08:51:33.952Z,99621.97
2023-05-25T08:54:07.564Z,99620.53
2023-05-25T08:56:42.499Z,99617.50
2023-05-25T08:59:19.285Z,99619.28
2023-05-25T09:01:52.619Z,99623.28
2023-05-25T09:04:22.227Z,99621.81
2023-05-25T09:07:05.639Z,99621.66
2023-05-25T09:09:39.683Z,99609.56
2023-05-25T09:12:10.209Z,99610.28
2023-05-25T09:14:45.382Z,99609.09
2023-05-25T09:17:14.447Z,99608.09
2023-05-25T09:19:42.704Z,99605.69
2023-05-25T09:22:15.957Z,99595.22
2023-05-25T09:24:45.691Z,99603.25
2023-05-25T09:27:19.220Z,99594.69
2023-05-25T09:29:49.008Z,99600.69
2023-05-25T09:32:17.350Z,99598.44
2023-05-25T09:34:45.685Z,99599.41
2023-05-25T09:37:14.796Z,99587.31
2023-05-25T09:39:43.696Z,99597.41
2023-05-25T09:42:12.008Z,99585.34
2023-05-25T09:44:42.767Z,99586.34
2023-05-25T09:47:11.134Z,99583.28
2023-05-25T09:49:39.561Z,99548.00
2023-05-25T09:52:07.971Z,99581.75
2023-05-25T09:54:37.590Z,99570.19
2023-05-25T09:57:06.406Z,99567.59
2023-05-25T09:59:34.371Z,99566.53
2023-05-25T10:02:03.815Z,99566.13
2023-05-25T10:04:31.852Z,99566.44
2023-05-25T10:07:01.972Z,99566.78
2023-05-25T10:09:31.284Z,99561.56
2023-05-25T10:12:01.451Z,99566.56
2023-05-25T10:14:30.913Z,99561.38
2023-05-25T10:17:00.638Z,99557.78
2023-05-25T10:19:34.615Z,99553.03
2023-05-25T10:22:08.224Z,99547.25
2023-05-25T10:24:44.335Z,99548.31
2023-05-25T10:29:53.984Z,99558.13
2023-05-25T10:32:22.359Z,99567.38
2023-05-25T10:34:53.475Z,99581.47
2023-05-25T10:37:22.053Z,99567.84
2023-05-25T10:39:51.813Z,99578.25
2023-05-25T10:42:20.029Z,99556.94
2023-05-25T10:44:48.196Z,99561.72
2023-05-25T10:47:17.464Z,99551.44
2023-05-25T10:49:58.231Z,99560.53
2023-05-25T10:52:29.820Z,99558.03
2023-05-25T10:54:58.794Z,99562.28
2023-05-25T10:57:27.305Z,99554.59
2023-05-25T11:00:01.720Z,99561.25
2023-05-25T11:02:32.190Z,99566.47
2023-05-25T11:05:35.907Z,99569.44
2023-05-25T11:08:06.456Z,99552.63
2023-05-25T11:10:54.972Z,99562.94
2023-05-25T11:13:45.507Z,99557.75
2023-05-25T11:16:18.772Z,99555.09
2023-05-25T11:18:50.575Z,99561.34
2023-05-25T11:21:43.040Z,99569.00
2023-05-25T11:24:15.250Z,99573.91
2023-05-25T11:26:57.896Z,99570.41
2023-05-25T11:29:27.237Z,99564.03
2023-05-25T11:31:56.381Z,99576.81
2023-05-25T11:34:25.936Z,99578.69
2023-05-25T11:37:02.212Z,99573.97
2023-05-25T11:39:31.560Z,99565.53
2023-05-25T11:42:05.192Z,99572.94
2023-05-25T11:44:34.596Z,99559.19
2023-05-25T11:47:06.057Z,99558.38
2023-05-25T11:49:34.156Z,99556.72
2023-05-25T11:52:07.101Z,99553.88
2023-05-25T11:54:35.428Z,99547.22
2023-05-25T11:57:04.803Z,99554.28
2023-05-25T11:59:33.728Z,99549.91
2023-05-25T12:02:05.540Z,99538.94
2023-05-25T12:04:35.350Z,99540.06
2023-05-25T12:07:05.522Z,99542.88
2023-05-25T12:09:34.153Z,99542.09
2023-05-25T12:12:04.152Z,99536.44
2023-05-25T12:14:33.160Z,99537.38
2023-05-25T12:17:01.327Z,99532.16
2023-05-25T12:19:29.482Z,99527.84
2023-05-25T12:21:57.921Z,99526.00
2023-05-25T12:24:27.296Z,99531.38
2023-05-25T12:26:57.647Z,99534.31
2023-05-25T12:29:26.387Z,99536.84
2023-05-25T12:31:54.465Z,99531.75
2023-05-25T12:34:22.762Z,99524.94
2023-05-25T12:36:52.859Z,99529.03
2023-05-25T12:39:38.810Z,99527.28
2023-05-25T12:42:13.513Z,99534.78
2023-05-25T12:44:41.699Z,99536.00
2023-05-25T12:47:15.088Z,99540.38
2023-05-25T12:49:44.588Z,99532.41
2023-05-25T12:52:13.350Z,99537.38
2023-05-25T12:54:45.493Z,99523.34
2023-05-25T12:57:15.209Z,99532.53
2023-05-25T12:59:44.704Z,99529.56
2023-05-25T13:02:14.299Z,99535.88
2023-05-25T13:04:44.663Z,99528.81
2023-05-25T13:07:13.062Z,99471.75
2023-05-25T13:09:41.087Z,99518.19
2023-05-25T13:12:11.298Z,99540.59
2023-05-25T13:14:39.341Z,99538.00
2023-05-25T13:17:07.377Z,99547.91
2023-05-25T13:19:35.428Z,99550.78
2023-05-25T13:22:03.527Z,99542.13
2023-05-25T13:24:31.550Z,99542.84
2023-05-25T13:26:59.565Z,99538.34
2023-05-25T13:29:29.008Z,99553.78
2023-05-25T13:31:57.091Z,99558.50
2023-05-25T13:34:25.164Z,99558.31
2023-05-25T13:36:53.206Z,99563.47
2023-05-25T13:39:22.337Z,99554.69
2023-05-25T13:41:50.349Z,99572.53
2023-05-25T13:44:18.421Z,99571.28
2023-05-25T13:46:48.603Z,99576.41
2023-05-25T13:49:19.587Z,99574.34
2023-05-25T13:51:47.731Z,99587.06
2023-05-25T13:54:15.722Z,99578.03
2023-05-25T13:56:43.796Z,99587.50
2023-05-25T13:59:25.584Z,99586.66
2023-05-25T14:01:56.211Z,99588.72
2023-05-25T14:04:30.175Z,99592.00
2023-05-25T14:09:43.401Z,99599.34
2023-05-25T14:12:13.558Z,99612.97
2023-05-25T14:14:42.307Z,99614.75
2023-05-25T14:17:11.673Z,99618.13
2023-05-25T14:19:39.721Z,99629.31
2023-05-25T14:22:14.094Z,99623.50
2023-05-25T14:24:42.683Z,99613.38
2023-05-25T14:27:10.853Z,99613.94
2023-05-25T14:29:38.930Z,99612.91
2023-05-25T14:32:07.247Z,99619.25
2023-05-25T14:34:36.647Z,99618.09
2023-05-25T14:37:04.838Z,99612.63
2023-05-25T14:39:32.837Z,99536.63
2023-05-25T14:42:02.540Z,99611.28
2023-05-25T14:44:30.694Z,99603.91
2023-05-25T14:46:58.893Z,99593.59
2023-05-25T14:49:27.777Z,99598.72
2023-05-25T14:51:57.166Z,99597.50
2023-05-25T14:54:25.278Z,99601.88
2023-05-25T14:56:53.254Z,99597.38
2023-05-25T14:59:21.320Z,99613.31
2023-05-25T15:01:49.426Z,99605.31
2023-05-25T15:04:17.440Z,99613.34
2023-05-25T15:06:45.570Z,99617.13
2023-05-25T15:09:15.918Z,99618.00
2023-05-25T15:11:43.893Z,99615.81
2023-05-25T15:14:11.994Z,99608.09
2023-05-25T15:16:40.263Z,99606.59
2023-05-25T15:19:10.664Z,99624.50
2023-05-25T15:21:39.762Z,99618.34
2023-05-25T15:24:07.951Z,99601.91
2023-05-25T15:26:37.325Z,99610.34
2023-05-25T15:29:05.315Z,99592.94
2023-05-25T15:31:33.412Z,99611.84
2023-05-25T15:34:01.924Z,99609.81
2023-05-25T15:36:29.939Z,99590.88
2023-05-25T15:38:58.022Z,99598.84
2023-05-25T15:41:25.988Z,99602.00
2023-05-25T15:43:58.519Z,99591.16
2023-05-25T15:46:26.959Z,99586.66
2023-05-25T15:48:55.091Z,99595.09
2023-05-25T15:51:23.283Z,99586.16
2023-05-25T15:53:51.294Z,99586.13
2023-05-25T15:56:19.327Z,99579.53
2023-05-25T15:58:49.441Z,99579.78
2023-05-25T16:01:18.920Z,99562.25
2023-05-25T16:03:46.997Z,99581.00
2023-05-25T16:06:14.940Z,99584.47
2023-05-25T16:08:42.842Z,99579.94
2023-05-25T16:11:10.830Z,99586.09
2023-05-25T16:13:38.964Z,99564.34
2023-05-25T16:16:07.689Z,99577.09
2023-05-25T16:18:37.334Z,99577.09
2023-05-25T16:21:05.700Z,99494.69
2023-05-25T16:23:33.678Z,99579.38
2023-05-25T16:26:01.609Z,99572.53
2023-05-25T16:28:29.704Z,99543.81
2023-05-25T16:30:57.661Z,99567.66
2023-05-25T16:33:25.802Z,99583.28
2023-05-25T16:35:55.148Z,99589.63
2023-05-25T16:38:23.120Z,99599.81
2023-05-25T16:40:51.150Z,99612.31
2023-05-25T16:43:19.205Z,99616.72
2023-05-25T16:45:50.044Z,99624.22
2023-05-25T16:48:18.033Z,99630.78
2023-05-25T16:50:46.057Z,99632.63
2023-05-25T16:53:15.416Z,99626.25
2023-05-25T16:55:43.819Z,99621.38
2023-05-25T16:58:11.974Z,99607.00
2023-05-25T17:00:39.983Z,99629.59
2023-05-25T17:03:07.995Z,99633.94
2023-05-25T17:05:35.996Z,99634.41
2023-05-25T17:08:03.869Z,99628.25
2023-05-25T17:10:33.169Z,99616.69
2023-05-25T17:13:01.245Z,99625.13
2023-05-25T17:15:29.198Z,99620.41
2023-05-25T17:17:57.121Z,99614.16
2023-05-25T17:20:25.199Z,99608.72
2023-05-25T17:22:53.257Z,99604.09
2023-05-25T17:25:21.385Z,99597.53
2023-05-25T17:27:50.760Z,99604.72
2023-05-25T17:30:18.758Z,99601.13
2023-05-25T17:32:47.115Z,99605.34
2023-05-25T17:35:15.070Z,99598.34
2023-05-25T17:37:43.091Z,99599.16
2023-05-25T17:40:12.117Z,99597.28
2023-05-25T17:42:40.862Z,99608.28
2023-05-25T17:45:11.855Z,99601.66
2023-05-25T17:47:39.932Z,99603.69
2023-05-25T17:50:08.495Z,99611.56
2023-05-25T17:52:36.361Z,99599.75
2023-05-25T17:55:04.458Z,99611.09
2023-05-25T17:57:32.451Z,99609.41
2023-05-25T18:00:00.389Z,99606.84
2023-05-25T18:02:30.534Z,99604.91
2023-05-25T18:04:58.577Z,99608.28
2023-05-25T18:07:26.548Z,99609.66
2023-05-25T18:09:54.510Z,99611.78
2023-05-25T18:12:22.524Z,99617.19
2023-05-25T18:14:50.431Z,99622.22
2023-05-25T18:17:18.555Z,99625.06
2023-05-25T18:19:47.933Z,99621.00
2023-05-25T18:22:15.944Z,99621.00
2023-05-25T18:24:43.940Z,99625.69
2023-05-25T18:27:11.868Z,99625.19
2023-05-25T18:29:39.793Z,99634.84
2023-05-25T18:32:08.261Z,99619.06
2023-05-25T18:34:36.221Z,99630.03
2023-05-25T18:37:05.807Z,99634.44
2023-05-25T18:39:34.011Z,99601.31
2023-05-25T18:42:02.603Z,99635.69
2023-05-25T18:44:30.557Z,99638.06
2023-05-25T18:46:59.143Z,99637.53
2023-05-25T18:49:32.733Z,99643.78
2023-05-25T18:52:01.482Z,99639.69
2023-05-25T18:54:30.792Z,99642.63
2023-05-25T18:56:58.783Z,99627.13
2023-05-25T18:59:26.717Z,99636.91
2023-05-25T19:01:54.727Z,99644.00
2023-05-25T19:04:22.783Z,99651.25
2023-05-25T19:06:50.941Z,99642.69
2023-05-25T19:09:18.872Z,99652.81
2023-05-25T19:11:48.225Z,99650.53
2023-05-25T19:14:16.188Z,99635.78
2023-05-25T19:16:45.959Z,99645.00
2023-05-25T19:19:15.252Z,99648.09
2023-05-25T19:21:43.163Z,99647.38
2023-05-25T19:24:11.193Z,99649.03
2023-05-25T19:26:39.310Z,99647.31
2023-05-25T19:29:08.645Z,99644.75
2023-05-25T19:31:36.727Z,99651.34
2023-05-25T19:34:04.720Z,99642.78
2023-05-25T19:36:32.917Z,99658.97
2023-05-25T19:39:00.914Z,99657.69
2023-05-25T19:41:28.886Z,99652.66
2023-05-25T19:43:56.889Z,99661.38
2023-05-25T19:46:26.307Z,99666.34
2023-05-25T19:48:54.329Z,99667.19
2023-05-25T19:51:22.403Z,99651.91
2023-05-25T19:53:52.083Z,99656.81
2023-05-25T19:56:20.048Z,99637.84
2023-05-25T19:58:48.165Z,99654.69
2023-05-25T20:01:16.237Z,99647.84
2023-05-25T20:03:45.933Z,99649.13
2023-05-25T20:06:14.070Z,99649.63
2023-05-25T20:08:42.089Z,99648.97
2023-05-25T20:11:10.313Z,99642.00
2023-05-25T20:13:38.269Z,99650.06
2023-05-25T20:16:09.995Z,99649.69
2023-05-25T20:18:38.067Z,99652.63
2023-05-25T20:21:07.327Z,99649.84
2023-05-25T20:23:35.462Z,99651.66
2023-05-25T20:26:03.446Z,99648.31
2023-05-25T20:28:31.429Z,99647.03
2023-05-25T20:30:59.385Z,99648.09
2023-05-25T20:33:27.347Z,99644.44
2023-05-25T20:35:55.327Z,99646.72
2023-05-25T20:38:24.664Z,99644.28
2023-05-25T20:40:52.652Z,99641.63
2023-05-25T20:43:20.590Z,99625.44
2023-05-25T20:45:48.841Z,99649.03
2023-05-25T20:48:17.265Z,99647.28
2023-05-25T20:50:45.582Z,99646.91
2023-05-25T20:53:13.657Z,99641.78
2023-05-25T20:55:43.154Z,99642.63
2023-05-25T20:58:11.366Z,99642.78
2023-05-25T21:00:39.337Z,99634.84
2023-05-25T21:03:08.656Z,99632.81
2023-05-25T21:05:38.150Z,99621.19
2023-05-25T21:08:06.134Z,99632.91
2023-05-25T21:10:34.137Z,99636.44
2023-05-25T21:13:03.496Z,99638.44
2023-05-25T21:15:31.803Z,99640.72
2023-05-25T21:17:59.806Z,99632.50
2023-05-25T21:20:27.843Z,99644.66
2023-05-25T21:22:55.856Z,99652.28
2023-05-25T21:25:23.933Z,99649.63
2023-05-25T21:27:52.199Z,99643.69
2023-05-25T21:30:21.691Z,99645.47
2023-05-25T21:32:49.665Z,99643.16
2023-05-25T21:35:18.234Z,99640.34
2023-05-25T21:37:46.224Z,99643.66
2023-05-25T21:40:14.564Z,99637.22
2023-05-25T21:42:42.511Z,99645.41
2023-05-25T21:45:11.053Z,99635.34
2023-05-25T21:47:40.448Z,99635.00
2023-05-25T21:50:08.796Z,99635.50
2023-05-25T21:52:36.815Z,99630.22
2023-05-25T21:55:05.079Z,99630.84
2023-05-25T21:57:32.995Z,99634.34
2023-05-25T22:00:00.963Z,99627.41
2023-05-25T22:02:28.962Z,99623.41
2023-05-25T22:04:58.429Z,99621.25
2023-05-25T22:07:26.530Z,99613.97
2023-05-25T22:09:54.500Z,99609.84
2023-05-25T22:12:22.474Z,99608.94
2023-05-25T22:14:50.455Z,99607.50
2023-05-25T22:17:19.145Z,99601.31
2023-05-25T22:19:55.312Z,99609.50
2023-05-25T22:22:36.606Z,99599.25
2023-05-25T22:25:04.751Z,99603.66
2023-05-25T22:27:33.033Z,99605.03
2023-05-25T22:30:01.533Z,99610.50
2023-05-25T22:32:30.807Z,99608.69
2023-05-25T22:34:58.849Z,99605.41
2023-05-25T22:37:26.800Z,99606.41
2023-05-25T22:39:56.129Z,99617.69
2023-05-25T22:42:24.157Z,99616.00
2023-05-25T22:44:52.435Z,99607.59
2023-05-25T22:47:20.429Z,99610.69
2023-05-25T22:49:48.393Z,99614.88
2023-05-25T22:52:16.522Z,99609.69
2023-05-25T22:54:44.468Z,99618.13
2023-05-25T22:57:13.808Z,99616.50
2023-05-25T22:59:41.709Z,99615.00
2023-05-25T23:02:09.785Z,99609.34
2023-05-25T23:04:37.810Z,99623.94
2023-05-25T23:07:06.245Z,99620.03
2023-05-25T23:09:34.241Z,99621.06
2023-05-25T23:12:02.357Z,99620.09
2023-05-25T23:14:32.617Z,99549.47
2023-05-25T23:17:00.579Z,99615.47
2023-05-25T23:19:28.619Z,99610.19
2023-05-25T23:21:58.583Z,99594.00
2023-05-25T23:24:26.557Z,99613.47
2023-05-25T23:26:54.537Z,99613.66
2023-05-25T23:29:22.528Z,99614.72
2023-05-25T23:31:51.948Z,99605.25
2023-05-25T23:34:19.976Z,99605.75
2023-05-25T23:36:47.901Z,99607.22
2023-05-25T23:39:15.931Z,99602.28
2023-05-25T23:41:43.899Z,99605.25
2023-05-25T23:44:11.820Z,99603.91
2023-05-25T23:46:39.896Z,99603.25
2023-05-25T23:49:09.263Z,99599.47
2023-05-25T23:51:37.604Z,99598.22
2023-05-25T23:54:06.873Z,99589.66
2023-05-25T23:56:34.794Z,99593.16
2023-05-25T23:59:02.728Z,99575.88
